sensor_id;sensor_type;location;lat;lon;timestamp;P1;durP1;ratioP1;P2;durP2;ratioP2
14171;SDS011;7165;52.388;4.928;2023-03-25T00:20:57;20.50;;;6.30;;
14171;SDS011;7165;52.388;4.928;2023-03-25T00:23:25;22.73;;;6.30;;
14171;SDS011;7165;52.388;4.928;2023-03-25T00:25:53;17.10;;;5.95;;
14171;SDS011;7165;52.388;4.928;2023-03-25T00:28:24;13.50;;;5.45;;
14171;SDS011;7165;52.388;4.928;2023-03-25T00:30:53;20.83;;;6.25;;
14171;SDS011;7165;52.388;4.928;2023-03-25T00:33:20;20.50;;;5.78;;
14171;SDS011;7165;52.388;4.928;2023-03-25T00:35:51;13.25;;;5.82;;
14171;SDS011;7165;52.388;4.928;2023-03-25T00:38:22;20.98;;;6.10;;
14171;SDS011;7165;52.388;4.928;2023-03-25T00:40:57;16.02;;;6.18;;
14171;SDS011;7165;52.388;4.928;2023-03-25T00:43:33;20.23;;;6.15;;
14171;SDS011;7165;52.388;4.928;2023-03-25T00:45:59;22.65;;;7.82;;
14171;SDS011;7165;52.388;4.928;2023-03-25T00:48:26;21.73;;;6.40;;
14171;SDS011;7165;52.388;4.928;2023-03-25T00:50:55;20.05;;;6.43;;
14171;SDS011;7165;52.388;4.928;2023-03-25T00:53:21;22.23;;;6.82;;
14171;SDS011;7165;52.388;4.928;2023-03-25T00:55:48;15.95;;;5.80;;
14171;SDS011;7165;52.388;4.928;2023-03-25T00:58:15;17.67;;;5.80;;
14171;SDS011;7165;52.388;4.928;2023-03-25T01:00:41;17.08;;;6.25;;
14171;SDS011;7165;52.388;4.928;2023-03-25T01:03:08;25.42;;;6.38;;
14171;SDS011;7165;52.388;4.928;2023-03-25T01:05:36;16.48;;;5.72;;
14171;SDS011;7165;52.388;4.928;2023-03-25T01:08:06;17.02;;;6.32;;
14171;SDS011;7165;52.388;4.928;2023-03-25T01:10:34;10.07;;;4.57;;
14171;SDS011;7165;52.388;4.928;2023-03-25T01:13:01;20.77;;;6.32;;
14171;SDS011;7165;52.388;4.928;2023-03-25T01:15:28;20.80;;;6.65;;
14171;SDS011;7165;52.388;4.928;2023-03-25T01:17:55;13.60;;;5.28;;
14171;SDS011;7165;52.388;4.928;2023-03-25T01:20:21;13.60;;;4.93;;
14171;SDS011;7165;52.388;4.928;2023-03-25T01:22:48;15.70;;;5.63;;
14171;SDS011;7165;52.388;4.928;2023-03-25T01:25:16;18.88;;;6.25;;
14171;SDS011;7165;52.388;4.928;2023-03-25T01:27:43;18.60;;;5.05;;
14171;SDS011;7165;52.388;4.928;2023-03-25T01:30:10;27.58;;;6.82;;
14171;SDS011;7165;52.388;4.928;2023-03-25T01:32:38;19.48;;;6.03;;
14171;SDS011;7165;52.388;4.928;2023-03-25T01:35:05;15.70;;;5.18;;
14171;SDS011;7165;52.388;4.928;2023-03-25T01:37:32;18.23;;;5.65;;
14171;SDS011;7165;52.388;4.928;2023-03-25T01:40:00;18.85;;;5.75;;
14171;SDS011;7165;52.388;4.928;2023-03-25T01:42:30;19.75;;;6.35;;
14171;SDS011;7165;52.388;4.928;2023-03-25T01:47:46;20.80;;;6.80;;
14171;SDS011;7165;52.388;4.928;2023-03-25T01:50:17;14.00;;;6.43;;
14171;SDS011;7165;52.388;4.928;2023-03-25T01:52:46;19.38;;;6.32;;
14171;SDS011;7165;52.388;4.928;2023-03-25T01:55:16;23.73;;;7.25;;
14171;SDS011;7165;52.388;4.928;2023-03-25T01:57:46;20.02;;;4.90;;
14171;SDS011;7165;52.388;4.928;2023-03-25T02:00:14;22.90;;;6.13;;
14171;SDS011;7165;52.388;4.928;2023-03-25T02:02:43;20.50;;;6.70;;
14171;SDS011;7165;52.388;4.928;2023-03-25T02:05:12;20.20;;;5.53;;
14171;SDS011;7165;52.388;4.928;2023-03-25T02:07:44;18.50;;;6.32;;
14171;SDS011;7165;52.388;4.928;2023-03-25T02:10:14;21.63;;;7.20;;
14171;SDS011;7165;52.388;4.928;2023-03-25T02:12:41;19.27;;;6.70;;
14171;SDS011;7165;52.388;4.928;2023-03-25T02:15:11;19.80;;;6.35;;
14171;SDS011;7165;52.388;4.928;2023-03-25T02:17:43;17.73;;;5.95;;
14171;SDS011;7165;52.388;4.928;2023-03-25T02:20:34;17.20;;;6.55;;
14171;SDS011;7165;52.388;4.928;2023-03-25T02:23:29;17.10;;;6.35;;
14171;SDS011;7165;52.388;4.928;2023-03-25T02:26:34;21.30;;;6.50;;
14171;SDS011;7165;52.388;4.928;2023-03-25T02:29:41;22.42;;;5.93;;
14171;SDS011;7165;52.388;4.928;2023-03-25T02:32:24;20.85;;;6.25;;
14171;SDS011;7165;52.388;4.928;2023-03-25T02:35:05;19.70;;;6.65;;
14171;SDS011;7165;52.388;4.928;2023-03-25T02:37:58;19.17;;;6.47;;
14171;SDS011;7165;52.388;4.928;2023-03-25T02:40:38;19.60;;;6.10;;
14171;SDS011;7165;52.388;4.928;2023-03-25T02:43:12;18.85;;;5.93;;
14171;SDS011;7165;52.388;4.928;2023-03-25T02:45:45;22.10;;;6.68;;
14171;SDS011;7165;52.388;4.928;2023-03-25T02:48:16;18.23;;;5.53;;
14171;SDS011;7165;52.388;4.928;2023-03-25T02:50:47;19.20;;;5.70;;
14171;SDS011;7165;52.388;4.928;2023-03-25T02:53:19;20.60;;;6.22;;
14171;SDS011;7165;52.388;4.928;2023-03-25T02:55:50;19.40;;;6.57;;
14171;SDS011;7165;52.388;4.928;2023-03-25T02:58:21;16.10;;;5.80;;
14171;SDS011;7165;52.388;4.928;2023-03-25T03:00:48;19.05;;;6.10;;
14171;SDS011;7165;52.388;4.928;2023-03-25T03:03:17;24.73;;;7.38;;
14171;SDS011;7165;52.388;4.928;2023-03-25T03:05:44;22.65;;;7.15;;
14171;SDS011;7165;52.388;4.928;2023-03-25T03:08:20;18.42;;;5.68;;
14171;SDS011;7165;52.388;4.928;2023-03-25T03:10:55;26.60;;;6.55;;
14171;SDS011;7165;52.388;4.928;2023-03-25T03:13:33;17.88;;;6.30;;
14171;SDS011;7165;52.388;4.928;2023-03-25T03:16:07;21.67;;;6.68;;
14171;SDS011;7165;52.388;4.928;2023-03-25T03:18:42;22.83;;;7.38;;
14171;SDS011;7165;52.388;4.928;2023-03-25T03:21:16;24.65;;;7.20;;
14171;SDS011;7165;52.388;4.928;2023-03-25T03:23:57;24.98;;;7.07;;
14171;SDS011;7165;52.388;4.928;2023-03-25T03:26:32;16.38;;;6.68;;
14171;SDS011;7165;52.388;4.928;2023-03-25T03:29:06;25.33;;;7.97;;
14171;SDS011;7165;52.388;4.928;2023-03-25T03:31:39;26.00;;;7.63;;
14171;SDS011;7165;52.388;4.928;2023-03-25T03:34:10;25.58;;;7.88;;
14171;SDS011;7165;52.388;4.928;2023-03-25T03:36:43;27.13;;;7.35;;
14171;SDS011;7165;52.388;4.928;2023-03-25T03:39:15;21.88;;;7.80;;
14171;SDS011;7165;52.388;4.928;2023-03-25T03:41:46;23.60;;;7.85;;
14171;SDS011;7165;52.388;4.928;2023-03-25T03:44:17;23.73;;;8.05;;
14171;SDS011;7165;52.388;4.928;2023-03-25T03:46:49;24.23;;;7.43;;
14171;SDS011;7165;52.388;4.928;2023-03-25T03:49:20;22.25;;;7.22;;
14171;SDS011;7165;52.388;4.928;2023-03-25T03:51:52;25.92;;;8.70;;
14171;SDS011;7165;52.388;4.928;2023-03-25T03:54:25;23.98;;;7.07;;
14171;SDS011;7165;52.388;4.928;2023-03-25T03:56:56;27.63;;;6.97;;
14171;SDS011;7165;52.388;4.928;2023-03-25T03:59:29;27.17;;;7.20;;
14171;SDS011;7165;52.388;4.928;2023-03-25T04:02:03;21.92;;;7.97;;
14171;SDS011;7165;52.388;4.928;2023-03-25T04:04:36;24.98;;;8.02;;
14171;SDS011;7165;52.388;4.928;2023-03-25T04:07:03;21.98;;;6.82;;
14171;SDS011;7165;52.388;4.928;2023-03-25T04:09:41;23.08;;;7.20;;
14171;SDS011;7165;52.388;4.928;2023-03-25T04:12:19;24.60;;;8.05;;
14171;SDS011;7165;52.388;4.928;2023-03-25T04:14:49;21.27;;;7.10;;
14171;SDS011;7165;52.388;4.928;2023-03-25T04:17:16;22.73;;;7.53;;
14171;SDS011;7165;52.388;4.928;2023-03-25T04:19:43;21.00;;;7.97;;
14171;SDS011;7165;52.388;4.928;2023-03-25T04:22:13;25.25;;;7.40;;
14171;SDS011;7165;52.388;4.928;2023-03-25T04:24:43;25.77;;;7.88;;
14171;SDS011;7165;52.388;4.928;2023-03-25T04:27:09;23.45;;;7.10;;
14171;SDS011;7165;52.388;4.928;2023-03-25T04:29:37;22.25;;;6.85;;
14171;SDS011;7165;52.388;4.928;2023-03-25T04:32:05;27.27;;;8.38;;
14171;SDS011;7165;52.388;4.928;2023-03-25T04:34:33;22.52;;;6.53;;
14171;SDS011;7165;52.388;4.928;2023-03-25T04:37:00;27.00;;;9.40;;
14171;SDS011;7165;52.388;4.928;2023-03-25T04:39:27;20.98;;;7.07;;
14171;SDS011;7165;52.388;4.928;2023-03-25T04:41:57;16.00;;;5.97;;
14171;SDS011;7165;52.388;4.928;2023-03-25T04:44:27;22.42;;;6.18;;
14171;SDS011;7165;52.388;4.928;2023-03-25T04:46:53;20.10;;;6.35;;
14171;SDS011;7165;52.388;4.928;2023-03-25T04:49:21;19.00;;;5.88;;
14171;SDS011;7165;52.388;4.928;2023-03-25T04:51:49;17.73;;;5.65;;
14171;SDS011;7165;52.388;4.928;2023-03-25T04:54:16;20.33;;;6.80;;
14171;SDS011;7165;52.388;4.928;2023-03-25T04:56:43;18.60;;;5.57;;
14171;SDS011;7165;52.388;4.928;2023-03-25T04:59:12;19.75;;;5.63;;
14171;SDS011;7165;52.388;4.928;2023-03-25T05:01:39;27.30;;;6.70;;
14171;SDS011;7165;52.388;4.928;2023-03-25T05:04:10;16.80;;;5.28;;
14171;SDS011;7165;52.388;4.928;2023-03-25T10:06:55;17.30;;;6.50;;
14171;SDS011;7165;52.388;4.928;2023-03-25T10:09:31;18.30;;;7.05;;
14171;SDS011;7165;52.388;4.928;2023-03-25T10:12:07;16.58;;;5.85;;
14171;SDS011;7165;52.388;4.928;2023-03-25T10:14:50;22.02;;;5.72;;
14171;SDS011;7165;52.388;4.928;2023-03-25T10:17:28;18.30;;;5.28;;
14171;SDS011;7165;52.388;4.928;2023-03-25T10:20:04;16.40;;;4.95;;
14171;SDS011;7165;52.388;4.928;2023-03-25T10:22:38;20.05;;;6.50;;
14171;SDS011;7165;52.388;4.928;2023-03-25T10:25:14;15.55;;;5.57;;
14171;SDS011;7165;52.388;4.928;2023-03-25T10:27:46;15.02;;;5.85;;
14171;SDS011;7165;52.388;4.928;2023-03-25T10:30:16;19.25;;;5.15;;
14171;SDS011;7165;52.388;4.928;2023-03-25T10:32:47;17.52;;;6.45;;
14171;SDS011;7165;52.388;4.928;2023-03-25T10:35:18;15.10;;;5.70;;
14171;SDS011;7165;52.388;4.928;2023-03-25T10:37:49;11.68;;;5.10;;
14171;SDS011;7165;52.388;4.928;2023-03-25T10:40:18;21.13;;;5.40;;
14171;SDS011;7165;52.388;4.928;2023-03-25T10:42:56;18.50;;;5.75;;
14171;SDS011;7165;52.388;4.928;2023-03-25T10:45:30;13.57;;;5.47;;
14171;SDS011;7165;52.388;4.928;2023-03-25T10:48:00;13.90;;;6.25;;
14171;SDS011;7165;52.388;4.928;2023-03-25T10:50:33;20.75;;;6.05;;
14171;SDS011;7165;52.388;4.928;2023-03-25T10:53:01;17.67;;;6.10;;
14171;SDS011;7165;52.388;4.928;2023-03-25T10:55:30;19.10;;;5.63;;
14171;SDS011;7165;52.388;4.928;2023-03-25T10:58:00;18.70;;;5.88;;
14171;SDS011;7165;52.388;4.928;2023-03-25T11:00:27;15.95;;;5.57;;
14171;SDS011;7165;52.388;4.928;2023-03-25T11:02:54;17.00;;;5.40;;
14171;SDS011;7165;52.388;4.928;2023-03-25T11:05:22;16.90;;;5.65;;
14171;SDS011;7165;52.388;4.928;2023-03-25T11:07:53;13.82;;;4.25;;
14171;SDS011;7165;52.388;4.928;2023-03-25T11:10:23;16.98;;;5.90;;
14171;SDS011;7165;52.388;4.928;2023-03-25T13:33:56;13.43;;;3.50;;
14171;SDS011;7165;52.388;4.928;2023-03-25T13:36:33;11.13;;;4.82;;
14171;SDS011;7165;52.388;4.928;2023-03-25T13:39:02;9.57;;;3.70;;
14171;SDS011;7165;52.388;4.928;2023-03-25T13:41:37;13.65;;;3.75;;
14171;SDS011;7165;52.388;4.928;2023-03-25T13:44:07;10.93;;;3.60;;
14171;SDS011;7165;52.388;4.928;2023-03-25T13:46:39;11.60;;;4.13;;
14171;SDS011;7165;52.388;4.928;2023-03-25T13:49:12;12.75;;;3.78;;
14171;SDS011;7165;52.388;4.928;2023-03-25T13:51:45;14.75;;;4.82;;
14171;SDS011;7165;52.388;4.928;2023-03-25T13:54:13;13.60;;;4.68;;
14171;SDS011;7165;52.388;4.928;2023-03-25T14:00:07;12.43;;;3.97;;
14171;SDS011;7165;52.388;4.928;2023-03-25T14:06:00;7.05;;;2.83;;
14171;SDS011;7165;52.388;4.928;2023-03-25T14:11:50;11.57;;;3.35;;
14171;SDS011;7165;52.388;4.928;2023-03-25T14:14:22;16.65;;;4.35;;
14171;SDS011;7165;52.388;4.928;2023-03-25T14:16:50;10.95;;;3.90;;
14171;SDS011;7165;52.388;4.928;2023-03-25T14:19:19;17.23;;;4.63;;
14171;SDS011;7165;52.388;4.928;2023-03-25T14:21:57;12.50;;;3.70;;
14171;SDS011;7165;52.388;4.928;2023-03-25T14:24:26;14.73;;;5.25;;
14171;SDS011;7165;52.388;4.928;2023-03-25T14:26:58;14.45;;;4.32;;
14171;SDS011;7165;52.388;4.928;2023-03-25T14:29:30;18.83;;;5.85;;
14171;SDS011;7165;52.388;4.928;2023-03-25T14:32:04;12.25;;;4.88;;
14171;SDS011;7165;52.388;4.928;2023-03-25T14:34:49;13.93;;;4.82;;
14171;SDS011;7165;52.388;4.928;2023-03-25T14:37:33;12.35;;;4.45;;
14171;SDS011;7165;52.388;4.928;2023-03-25T15:08:49;2.35;;;2.10;;
14171;SDS011;7165;52.388;4.928;2023-03-25T15:11:24;4.47;;;2.67;;
14171;SDS011;7165;52.388;4.928;2023-03-25T15:13:55;3.00;;;2.13;;
14171;SDS011;7165;52.388;4.928;2023-03-25T15:16:27;2.88;;;2.25;;
14171;SDS011;7165;52.388;4.928;2023-03-25T15:19:00;4.50;;;2.30;;
14171;SDS011;7165;52.388;4.928;2023-03-25T15:21:33;8.03;;;2.53;;
14171;SDS011;7165;52.388;4.928;2023-03-25T15:24:15;4.05;;;2.63;;
14171;SDS011;7165;52.388;4.928;2023-03-25T15:26:49;4.30;;;2.70;;
14171;SDS011;7165;52.388;4.928;2023-03-25T15:29:33;5.80;;;2.93;;
14171;SDS011;7165;52.388;4.928;2023-03-25T15:32:17;8.27;;;3.58;;
14171;SDS011;7165;52.388;4.928;2023-03-25T15:34:57;3.60;;;2.72;;
14171;SDS011;7165;52.388;4.928;2023-03-25T15:37:57;5.72;;;2.65;;
14171;SDS011;7165;52.388;4.928;2023-03-25T15:40:45;5.38;;;2.83;;
14171;SDS011;7165;52.388;4.928;2023-03-25T15:43:38;5.97;;;2.30;;
14171;SDS011;7165;52.388;4.928;2023-03-25T15:46:25;2.83;;;2.20;;
14171;SDS011;7165;52.388;4.928;2023-03-25T15:49:16;5.43;;;2.45;;
14171;SDS011;7165;52.388;4.928;2023-03-25T15:52:12;6.47;;;2.92;;
14171;SDS011;7165;52.388;4.928;2023-03-25T15:54:47;2.95;;;2.00;;
14171;SDS011;7165;52.388;4.928;2023-03-25T15:57:19;4.43;;;2.53;;
14171;SDS011;7165;52.388;4.928;2023-03-25T15:59:50;7.25;;;2.28;;
14171;SDS011;7165;52.388;4.928;2023-03-25T16:02:27;4.53;;;2.30;;
14171;SDS011;7165;52.388;4.928;2023-03-25T16:04:57;4.68;;;2.20;;
14171;SDS011;7165;52.388;4.928;2023-03-25T16:07:25;5.00;;;2.97;;
14171;SDS011;7165;52.388;4.928;2023-03-25T16:09:54;5.20;;;2.70;;
14171;SDS011;7165;52.388;4.928;2023-03-25T16:12:28;5.70;;;2.60;;
14171;SDS011;7165;52.388;4.928;2023-03-25T16:14:57;4.97;;;2.53;;
14171;SDS011;7165;52.388;4.928;2023-03-25T16:17:27;7.00;;;2.83;;
14171;SDS011;7165;52.388;4.928;2023-03-25T16:20:00;3.83;;;2.40;;
14171;SDS011;7165;52.388;4.928;2023-03-25T16:22:31;4.03;;;2.72;;
14171;SDS011;7165;52.388;4.928;2023-03-25T16:25:03;2.90;;;2.58;;
14171;SDS011;7165;52.388;4.928;2023-03-25T16:27:33;3.45;;;2.45;;
14171;SDS011;7165;52.388;4.928;2023-03-25T16:30:06;4.68;;;2.20;;
14171;SDS011;7165;52.388;4.928;2023-03-25T16:32:44;4.25;;;3.05;;
14171;SDS011;7165;52.388;4.928;2023-03-25T16:35:16;11.52;;;3.20;;
14171;SDS011;7165;52.388;4.928;2023-03-25T16:37:46;2.70;;;1.90;;
14171;SDS011;7165;52.388;4.928;2023-03-25T16:40:15;6.95;;;3.10;;
14171;SDS011;7165;52.388;4.928;2023-03-25T16:42:46;6.25;;;2.38;;
14171;SDS011;7165;52.388;4.928;2023-03-25T16:45:13;6.53;;;3.15;;
14171;SDS011;7165;52.388;4.928;2023-03-25T16:47:40;8.75;;;2.45;;
14171;SDS011;7165;52.388;4.928;2023-03-25T16:50:12;7.70;;;3.30;;
14171;SDS011;7165;52.388;4.928;2023-03-25T16:52:43;6.28;;;2.50;;
14171;SDS011;7165;52.388;4.928;2023-03-25T16:55:25;13.07;;;4.13;;
14171;SDS011;7165;52.388;4.928;2023-03-25T16:57:54;6.30;;;3.08;;
14171;SDS011;7165;52.388;4.928;2023-03-25T17:00:22;5.18;;;2.78;;
14171;SDS011;7165;52.388;4.928;2023-03-25T17:02:49;7.53;;;2.75;;
14171;SDS011;7165;52.388;4.928;2023-03-25T17:05:19;10.82;;;3.15;;
14171;SDS011;7165;52.388;4.928;2023-03-25T17:07:48;7.35;;;2.90;;
14171;SDS011;7165;52.388;4.928;2023-03-25T17:10:21;6.55;;;3.38;;
14171;SDS011;7165;52.388;4.928;2023-03-25T17:12:51;5.00;;;2.65;;
14171;SDS011;7165;52.388;4.928;2023-03-25T17:15:21;5.00;;;2.92;;
14171;SDS011;7165;52.388;4.928;2023-03-25T17:17:51;6.47;;;2.58;;
14171;SDS011;7165;52.388;4.928;2023-03-25T17:20:26;10.45;;;4.00;;
14171;SDS011;7165;52.388;4.928;2023-03-25T17:23:00;5.57;;;3.25;;
14171;SDS011;7165;52.388;4.928;2023-03-25T17:25:29;4.05;;;2.72;;
14171;SDS011;7165;52.388;4.928;2023-03-25T17:28:03;9.30;;;3.45;;
14171;SDS011;7165;52.388;4.928;2023-03-25T17:30:37;3.88;;;2.33;;
14171;SDS011;7165;52.388;4.928;2023-03-25T17:33:11;5.95;;;2.60;;
14171;SDS011;7165;52.388;4.928;2023-03-25T17:35:41;4.40;;;2.80;;
14171;SDS011;7165;52.388;4.928;2023-03-25T17:38:13;3.10;;;2.53;;
14171;SDS011;7165;52.388;4.928;2023-03-25T17:40:46;7.55;;;3.67;;
14171;SDS011;7165;52.388;4.928;2023-03-25T17:43:23;7.57;;;3.58;;
14171;SDS011;7165;52.388;4.928;2023-03-25T17:45:50;7.25;;;2.75;;
14171;SDS011;7165;52.388;4.928;2023-03-25T17:48:17;9.38;;;3.25;;
14171;SDS011;7165;52.388;4.928;2023-03-25T17:50:49;9.77;;;3.33;;
14171;SDS011;7165;52.388;4.928;2023-03-25T17:53:17;6.40;;;4.13;;
14171;SDS011;7165;52.388;4.928;2023-03-25T17:55:44;14.23;;;3.83;;
14171;SDS011;7165;52.388;4.928;2023-03-25T17:58:11;7.50;;;3.83;;
14171;SDS011;7165;52.388;4.928;2023-03-25T18:00:39;8.38;;;3.15;;
14171;SDS011;7165;52.388;4.928;2023-03-25T18:03:08;8.27;;;3.58;;
14171;SDS011;7165;52.388;4.928;2023-03-25T18:05:36;6.47;;;3.25;;
14171;SDS011;7165;52.388;4.928;2023-03-25T18:08:04;5.60;;;2.65;;
14171;SDS011;7165;52.388;4.928;2023-03-25T18:10:31;3.97;;;2.83;;
14171;SDS011;7165;52.388;4.928;2023-03-25T18:13:00;5.28;;;3.13;;
14171;SDS011;7165;52.388;4.928;2023-03-25T18:15:27;4.10;;;2.58;;
14171;SDS011;7165;52.388;4.928;2023-03-25T18:17:54;4.35;;;2.45;;
14171;SDS011;7165;52.388;4.928;2023-03-25T18:20:22;8.40;;;3.15;;
14171;SDS011;7165;52.388;4.928;2023-03-25T18:22:53;8.23;;;3.13;;
14171;SDS011;7165;52.388;4.928;2023-03-25T18:25:21;7.28;;;3.10;;
14171;SDS011;7165;52.388;4.928;2023-03-25T18:27:49;7.15;;;3.60;;
14171;SDS011;7165;52.388;4.928;2023-03-25T18:30:17;6.05;;;2.90;;
14171;SDS011;7165;52.388;4.928;2023-03-25T18:32:46;4.15;;;2.70;;
14171;SDS011;7165;52.388;4.928;2023-03-25T18:35:13;5.97;;;3.20;;
14171;SDS011;7165;52.388;4.928;2023-03-25T18:37:40;5.28;;;3.55;;
14171;SDS011;7165;52.388;4.928;2023-03-25T18:40:14;3.92;;;2.92;;
14171;SDS011;7165;52.388;4.928;2023-03-25T18:42:49;5.25;;;3.10;;
14171;SDS011;7165;52.388;4.928;2023-03-25T18:45:16;6.38;;;3.28;;
14171;SDS011;7165;52.388;4.928;2023-03-25T18:47:43;7.75;;;2.92;;
14171;SDS011;7165;52.388;4.928;2023-03-25T18:50:14;8.15;;;3.72;;
14171;SDS011;7165;52.388;4.928;2023-03-25T18:52:43;7.47;;;2.90;;
14171;SDS011;7165;52.388;4.928;2023-03-25T18:55:09;3.72;;;2.70;;
14171;SDS011;7165;52.388;4.928;2023-03-25T18:57:37;7.68;;;2.88;;
14171;SDS011;7165;52.388;4.928;2023-03-25T19:00:09;6.20;;;3.25;;
14171;SDS011;7165;52.388;4.928;2023-03-25T19:02:45;9.30;;;4.22;;
14171;SDS011;7165;52.388;4.928;2023-03-25T19:05:12;8.40;;;3.17;;
14171;SDS011;7165;52.388;4.928;2023-03-25T19:07:39;7.25;;;3.03;;
14171;SDS011;7165;52.388;4.928;2023-03-25T19:10:06;7.25;;;3.10;;
14171;SDS011;7165;52.388;4.928;2023-03-25T19:12:37;6.40;;;3.33;;
14171;SDS011;7165;52.388;4.928;2023-03-25T19:15:04;7.47;;;3.42;;
14171;SDS011;7165;52.388;4.928;2023-03-25T19:17:33;6.65;;;2.92;;
14171;SDS011;7165;52.388;4.928;2023-03-25T19:20:00;10.32;;;3.72;;
14171;SDS011;7165;52.388;4.928;2023-03-25T19:22:28;7.28;;;3.95;;
14171;SDS011;7165;52.388;4.928;2023-03-25T19:24:54;8.60;;;2.97;;
14171;SDS011;7165;52.388;4.928;2023-03-25T19:27:21;11.95;;;4.15;;
14171;SDS011;7165;52.388;4.928;2023-03-25T19:29:48;7.93;;;3.20;;
14171;SDS011;7165;52.388;4.928;2023-03-25T19:32:16;11.52;;;3.95;;
14171;SDS011;7165;52.388;4.928;2023-03-25T19:34:43;6.90;;;3.58;;
14171;SDS011;7165;52.388;4.928;2023-03-25T19:37:10;9.05;;;4.03;;
14171;SDS011;7165;52.388;4.928;2023-03-25T19:39:39;5.90;;;2.90;;
14171;SDS011;7165;52.388;4.928;2023-03-25T19:42:07;8.27;;;4.05;;
14171;SDS011;7165;52.388;4.928;2023-03-25T19:44:33;11.07;;;4.03;;
14171;SDS011;7165;52.388;4.928;2023-03-25T19:47:00;6.63;;;3.75;;
14171;SDS011;7165;52.388;4.928;2023-03-25T19:49:29;6.90;;;3.60;;
14171;SDS011;7165;52.388;4.928;2023-03-25T19:51:55;10.13;;;3.95;;
14171;SDS011;7165;52.388;4.928;2023-03-25T19:54:22;9.65;;;5.15;;
14171;SDS011;7165;52.388;4.928;2023-03-25T19:56:49;7.55;;;4.18;;
14171;SDS011;7165;52.388;4.928;2023-03-25T19:59:16;12.05;;;4.38;;
14171;SDS011;7165;52.388;4.928;2023-03-25T20:01:43;11.93;;;4.30;;
14171;SDS011;7165;52.388;4.928;2023-03-25T20:04:10;9.95;;;4.32;;
14171;SDS011;7165;52.388;4.928;2023-03-25T20:06:38;12.10;;;4.00;;
14171;SDS011;7165;52.388;4.928;2023-03-25T20:09:05;10.35;;;4.47;;
14171;SDS011;7165;52.388;4.928;2023-03-25T20:11:32;10.55;;;4.32;;
14171;SDS011;7165;52.388;4.928;2023-03-25T20:13:58;13.00;;;5.13;;
14171;SDS011;7165;52.388;4.928;2023-03-25T20:16:25;10.98;;;4.40;;
14171;SDS011;7165;52.388;4.928;2023-03-25T20:18:52;9.65;;;4.65;;
14171;SDS011;7165;52.388;4.928;2023-03-25T20:21:19;9.85;;;5.50;;
14171;SDS011;7165;52.388;4.928;2023-03-25T20:23:48;17.50;;;5.40;;
14171;SDS011;7165;52.388;4.928;2023-03-25T20:26:16;11.80;;;4.38;;
14171;SDS011;7165;52.388;4.928;2023-03-25T20:28:42;13.77;;;5.18;;
14171;SDS011;7165;52.388;4.928;2023-03-25T20:31:14;9.57;;;5.25;;
14171;SDS011;7165;52.388;4.928;2023-03-25T20:33:43;8.57;;;4.50;;
14171;SDS011;7165;52.388;4.928;2023-03-25T20:36:10;8.68;;;4.47;;
14171;SDS011;7165;52.388;4.928;2023-03-25T20:38:37;8.68;;;4.20;;
